sensor_id;sensor_type;location;lat;lon;timestamp;temperature;humidity
15413;DHT22;7805;49.554;7.632;2023-02-13T00:01:37;5.40;99.90
15413;DHT22;7805;49.554;7.632;2023-02-13T00:04:03;5.30;99.90
15413;DHT22;7805;49.554;7.632;2023-02-13T00:06:29;5.30;99.90
15413;DHT22;7805;49.554;7.632;2023-02-13T00:08:54;5.30;99.90
15413;DHT22;7805;49.554;7.632;2023-02-13T00:11:20;5.30;99.90
15413;DHT22;7805;49.554;7.632;2023-02-13T00:13:46;5.30;99.90
15413;DHT22;7805;49.554;7.632;2023-02-13T00:16:11;5.30;99.90
15413;DHT22;7805;49.554;7.632;2023-02-13T00:18:37;5.40;99.90
15413;DHT22;7805;49.554;7.632;2023-02-13T00:21:06;5.40;99.90
15413;DHT22;7805;49.554;7.632;2023-02-13T00:23:33;5.50;99.90
15413;DHT22;7805;49.554;7.632;2023-02-13T00:26:00;5.50;99.90
15413;DHT22;7805;49.554;7.632;2023-02-13T00:28:29;5.50;99.90
15413;DHT22;7805;49.554;7.632;2023-02-13T00:31:04;5.50;99.90
15413;DHT22;7805;49.554;7.632;2023-02-13T00:33:30;5.50;99.90
15413;DHT22;7805;49.554;7.632;2023-02-13T00:36:10;5.60;99.90
15413;DHT22;7805;49.554;7.632;2023-02-13T00:38:37;5.50;99.90
15413;DHT22;7805;49.554;7.632;2023-02-13T00:41:03;5.40;99.90
15413;DHT22;7805;49.554;7.632;2023-02-13T00:43:29;5.50;99.90
15413;DHT22;7805;49.554;7.632;2023-02-13T00:45:55;5.50;99.90
15413;DHT22;7805;49.554;7.632;2023-02-13T00:48:23;5.40;99.90
15413;DHT22;7805;49.554;7.632;2023-02-13T00:50:49;5.40;99.90
15413;DHT22;7805;49.554;7.632;2023-02-13T00:53:17;5.30;99.90
15413;DHT22;7805;49.554;7.632;2023-02-13T00:55:43;3.40;99.90
15413;DHT22;7805;49.554;7.632;2023-02-13T00:58:09;5.30;99.90
15413;DHT22;7805;49.554;7.632;2023-02-13T01:00:34;5.30;99.90
15413;DHT22;7805;49.554;7.632;2023-02-13T01:03:00;5.20;99.90
15413;DHT22;7805;49.554;7.632;2023-02-13T01:05:26;5.20;99.90
15413;DHT22;7805;49.554;7.632;2023-02-13T01:07:53;5.20;99.90
15413;DHT22;7805;49.554;7.632;2023-02-13T01:10:19;5.20;99.90
15413;DHT22;7805;49.554;7.632;2023-02-13T01:12:44;5.20;99.90
15413;DHT22;7805;49.554;7.632;2023-02-13T01:15:10;5.70;99.90
15413;DHT22;7805;49.554;7.632;2023-02-13T01:17:36;5.20;99.90
15413;DHT22;7805;49.554;7.632;2023-02-13T01:20:05;5.20;99.90
15413;DHT22;7805;49.554;7.632;2023-02-13T01:22:31;5.20;99.90
15413;DHT22;7805;49.554;7.632;2023-02-13T01:24:56;5.10;99.90
15413;DHT22;7805;49.554;7.632;2023-02-13T01:27:22;5.10;99.90
15413;DHT22;7805;49.554;7.632;2023-02-13T01:29:47;5.10;99.90
15413;DHT22;7805;49.554;7.632;2023-02-13T01:32:13;5.10;99.90
15413;DHT22;7805;49.554;7.632;2023-02-13T01:34:39;5.20;99.90
15413;DHT22;7805;49.554;7.632;2023-02-13T01:37:04;5.10;99.90
15413;DHT22;7805;49.554;7.632;2023-02-13T01:39:31;5.10;99.90
15413;DHT22;7805;49.554;7.632;2023-02-13T01:41:57;5.10;99.90
15413;DHT22;7805;49.554;7.632;2023-02-13T01:44:45;5.00;99.90
15413;DHT22;7805;49.554;7.632;2023-02-13T01:47:14;5.00;99.90
15413;DHT22;7805;49.554;7.632;2023-02-13T01:49:41;5.00;99.90
15413;DHT22;7805;49.554;7.632;2023-02-13T01:52:09;5.00;99.90
15413;DHT22;7805;49.554;7.632;2023-02-13T01:54:36;5.00;99.90
15413;DHT22;7805;49.554;7.632;2023-02-13T01:57:09;5.00;99.90
15413;DHT22;7805;49.554;7.632;2023-02-13T01:59:48;5.10;99.90
15413;DHT22;7805;49.554;7.632;2023-02-13T02:02:16;5.10;99.90
15413;DHT22;7805;49.554;7.632;2023-02-13T02:04:43;5.10;99.90
15413;DHT22;7805;49.554;7.632;2023-02-13T02:07:18;5.10;99.90
15413;DHT22;7805;49.554;7.632;2023-02-13T02:09:44;5.00;99.90
15413;DHT22;7805;49.554;7.632;2023-02-13T02:14:51;5.00;99.90
15413;DHT22;7805;49.554;7.632;2023-02-13T02:17:17;5.10;99.90
15413;DHT22;7805;49.554;7.632;2023-02-13T02:22:39;5.10;99.90
15413;DHT22;7805;49.554;7.632;2023-02-13T02:36:34;5.20;99.90
15413;DHT22;7805;49.554;7.632;2023-02-13T02:45:15;5.20;99.90
15413;DHT22;7805;49.554;7.632;2023-02-13T02:50:40;5.20;99.90
15413;DHT22;7805;49.554;7.632;2023-02-13T02:55:54;5.30;99.90
15413;DHT22;7805;49.554;7.632;2023-02-13T02:58:37;5.30;99.90
15413;DHT22;7805;49.554;7.632;2023-02-13T03:01:24;5.40;99.90
15413;DHT22;7805;49.554;7.632;2023-02-13T03:04:27;5.40;99.90
15413;DHT22;7805;49.554;7.632;2023-02-13T03:07:15;5.50;99.90
15413;DHT22;7805;49.554;7.632;2023-02-13T03:09:45;5.40;99.90
15413;DHT22;7805;49.554;7.632;2023-02-13T03:12:50;5.50;99.90
15413;DHT22;7805;49.554;7.632;2023-02-13T03:15:39;5.40;99.90
15413;DHT22;7805;49.554;7.632;2023-02-13T03:18:25;5.40;99.90
15413;DHT22;7805;49.554;7.632;2023-02-13T03:21:16;5.90;99.90
15413;DHT22;7805;49.554;7.632;2023-02-13T03:24:30;5.40;99.90
15413;DHT22;7805;49.554;7.632;2023-02-13T03:27:12;5.40;99.90
15413;DHT22;7805;49.554;7.632;2023-02-13T03:30:01;5.40;99.90
15413;DHT22;7805;49.554;7.632;2023-02-13T03:33:00;5.40;99.90
15413;DHT22;7805;49.554;7.632;2023-02-13T03:41:34;5.40;99.90
15413;DHT22;7805;49.554;7.632;2023-02-13T03:44:13;5.50;99.90
15413;DHT22;7805;49.554;7.632;2023-02-13T03:46:49;5.50;99.90
15413;DHT22;7805;49.554;7.632;2023-02-13T03:49:24;5.50;99.90
15413;DHT22;7805;49.554;7.632;2023-02-13T03:52:22;5.60;99.90
15413;DHT22;7805;49.554;7.632;2023-02-13T03:54:53;5.60;99.90
15413;DHT22;7805;49.554;7.632;2023-02-13T03:57:40;5.50;99.90
15413;DHT22;7805;49.554;7.632;2023-02-13T04:00:28;5.50;99.90
15413;DHT22;7805;49.554;7.632;2023-02-13T04:03:04;5.40;99.90
15413;DHT22;7805;49.554;7.632;2023-02-13T04:05:36;5.40;99.90
15413;DHT22;7805;49.554;7.632;2023-02-13T04:08:03;5.40;99.90
15413;DHT22;7805;49.554;7.632;2023-02-13T04:10:31;5.40;99.90
15413;DHT22;7805;49.554;7.632;2023-02-13T04:13:14;5.30;99.90
15413;DHT22;7805;49.554;7.632;2023-02-13T04:15:50;5.30;99.90
15413;DHT22;7805;49.554;7.632;2023-02-13T04:18:23;5.30;99.90
15413;DHT22;7805;49.554;7.632;2023-02-13T04:20:51;5.20;99.90
15413;DHT22;7805;49.554;7.632;2023-02-13T04:23:17;5.20;99.90
15413;DHT22;7805;49.554;7.632;2023-02-13T04:25:45;5.10;99.90
15413;DHT22;7805;49.554;7.632;2023-02-13T04:28:11;5.10;99.90
15413;DHT22;7805;49.554;7.632;2023-02-13T04:30:37;5.00;99.90
15413;DHT22;7805;49.554;7.632;2023-02-13T04:33:03;5.00;99.90
15413;DHT22;7805;49.554;7.632;2023-02-13T04:35:29;5.00;99.90
15413;DHT22;7805;49.554;7.632;2023-02-13T04:37:54;4.90;99.90
15413;DHT22;7805;49.554;7.632;2023-02-13T04:40:20;4.80;99.90
15413;DHT22;7805;49.554;7.632;2023-02-13T04:42:49;4.80;99.90
15413;DHT22;7805;49.554;7.632;2023-02-13T04:45:15;4.70;99.90
15413;DHT22;7805;49.554;7.632;2023-02-13T04:47:41;4.80;99.90
15413;DHT22;7805;49.554;7.632;2023-02-13T04:50:07;4.70;99.90
15413;DHT22;7805;49.554;7.632;2023-02-13T04:52:32;4.70;99.90
15413;DHT22;7805;49.554;7.632;2023-02-13T04:54:58;4.80;99.90
15413;DHT22;7805;49.554;7.632;2023-02-13T04:57:24;4.80;99.90
15413;DHT22;7805;49.554;7.632;2023-02-13T04:59:49;4.80;99.90
15413;DHT22;7805;49.554;7.632;2023-02-13T05:02:15;4.80;99.90
15413;DHT22;7805;49.554;7.632;2023-02-13T05:04:41;4.80;99.90
15413;DHT22;7805;49.554;7.632;2023-02-13T05:07:06;4.80;99.90
15413;DHT22;7805;49.554;7.632;2023-02-13T05:09:32;4.80;99.90
15413;DHT22;7805;49.554;7.632;2023-02-13T05:11:58;4.80;99.90
15413;DHT22;7805;49.554;7.632;2023-02-13T05:14:23;4.80;99.90
15413;DHT22;7805;49.554;7.632;2023-02-13T05:16:49;4.80;99.90
15413;DHT22;7805;49.554;7.632;2023-02-13T05:19:15;4.70;99.90
15413;DHT22;7805;49.554;7.632;2023-02-13T05:21:41;4.70;99.90
15413;DHT22;7805;49.554;7.632;2023-02-13T05:24:25;4.70;99.90
15413;DHT22;7805;49.554;7.632;2023-02-13T05:26:51;4.70;99.90
15413;DHT22;7805;49.554;7.632;2023-02-13T05:29:16;4.60;99.90
15413;DHT22;7805;49.554;7.632;2023-02-13T05:31:48;4.60;99.90
15413;DHT22;7805;49.554;7.632;2023-02-13T05:34:14;4.60;99.90
15413;DHT22;7805;49.554;7.632;2023-02-13T05:36:39;4.50;99.90
15413;DHT22;7805;49.554;7.632;2023-02-13T05:39:05;4.50;99.90
15413;DHT22;7805;49.554;7.632;2023-02-13T05:41:31;4.40;99.90
15413;DHT22;7805;49.554;7.632;2023-02-13T05:43:57;4.40;99.90
15413;DHT22;7805;49.554;7.632;2023-02-13T05:46:25;4.40;99.90
15413;DHT22;7805;49.554;7.632;2023-02-13T05:48:51;4.40;99.90
15413;DHT22;7805;49.554;7.632;2023-02-13T05:51:18;4.40;99.90
15413;DHT22;7805;49.554;7.632;2023-02-13T05:53:44;4.40;99.90
15413;DHT22;7805;49.554;7.632;2023-02-13T05:56:09;4.40;99.90
15413;DHT22;7805;49.554;7.632;2023-02-13T05:58:36;4.40;99.90
15413;DHT22;7805;49.554;7.632;2023-02-13T06:01:01;4.40;99.90
15413;DHT22;7805;49.554;7.632;2023-02-13T06:03:28;4.40;99.90
15413;DHT22;7805;49.554;7.632;2023-02-13T06:05:55;4.40;99.90
15413;DHT22;7805;49.554;7.632;2023-02-13T06:08:21;4.50;99.90
15413;DHT22;7805;49.554;7.632;2023-02-13T06:10:48;4.50;99.90
15413;DHT22;7805;49.554;7.632;2023-02-13T06:13:14;4.50;99.90
15413;DHT22;7805;49.554;7.632;2023-02-13T06:15:40;4.50;99.90
15413;DHT22;7805;49.554;7.632;2023-02-13T06:18:05;4.50;99.90
15413;DHT22;7805;49.554;7.632;2023-02-13T06:20:31;4.40;99.90
15413;DHT22;7805;49.554;7.632;2023-02-13T06:22:57;4.40;99.90
15413;DHT22;7805;49.554;7.632;2023-02-13T06:25:23;4.50;99.90
15413;DHT22;7805;49.554;7.632;2023-02-13T06:27:49;4.50;99.90
15413;DHT22;7805;49.554;7.632;2023-02-13T06:30:15;4.50;99.90
15413;DHT22;7805;49.554;7.632;2023-02-13T06:32:41;4.50;99.90
15413;DHT22;7805;49.554;7.632;2023-02-13T06:35:07;4.50;99.90
15413;DHT22;7805;49.554;7.632;2023-02-13T06:37:33;4.50;99.90
15413;DHT22;7805;49.554;7.632;2023-02-13T06:39:59;4.50;99.90
15413;DHT22;7805;49.554;7.632;2023-02-13T06:42:25;4.50;99.90
15413;DHT22;7805;49.554;7.632;2023-02-13T06:44:51;4.50;99.90
15413;DHT22;7805;49.554;7.632;2023-02-13T06:47:17;4.40;99.90
15413;DHT22;7805;49.554;7.632;2023-02-13T06:49:42;4.40;99.90
15413;DHT22;7805;49.554;7.632;2023-02-13T06:52:08;4.40;99.90
15413;DHT22;7805;49.554;7.632;2023-02-13T06:54:33;4.40;99.90
15413;DHT22;7805;49.554;7.632;2023-02-13T06:56:59;4.40;99.90
15413;DHT22;7805;49.554;7.632;2023-02-13T06:59:24;4.30;99.90
15413;DHT22;7805;49.554;7.632;2023-02-13T07:01:50;4.30;99.90
15413;DHT22;7805;49.554;7.632;2023-02-13T07:04:15;4.30;99.90
15413;DHT22;7805;49.554;7.632;2023-02-13T07:06:41;4.30;99.90
15413;DHT22;7805;49.554;7.632;2023-02-13T07:09:06;4.30;99.90
15413;DHT22;7805;49.554;7.632;2023-02-13T07:11:32;4.20;99.90
15413;DHT22;7805;49.554;7.632;2023-02-13T07:13:58;4.30;99.90
15413;DHT22;7805;49.554;7.632;2023-02-13T07:16:23;4.30;99.90
15413;DHT22;7805;49.554;7.632;2023-02-13T07:18:49;4.30;99.90
15413;DHT22;7805;49.554;7.632;2023-02-13T07:21:15;4.30;99.90
15413;DHT22;7805;49.554;7.632;2023-02-13T07:23:40;4.30;99.90
15413;DHT22;7805;49.554;7.632;2023-02-13T07:26:06;4.40;99.90
15413;DHT22;7805;49.554;7.632;2023-02-13T07:28:31;4.40;99.90
15413;DHT22;7805;49.554;7.632;2023-02-13T07:30:57;4.40;99.90
15413;DHT22;7805;49.554;7.632;2023-02-13T07:33:23;4.40;99.90
15413;DHT22;7805;49.554;7.632;2023-02-13T07:35:50;4.50;99.90
15413;DHT22;7805;49.554;7.632;2023-02-13T07:38:16;4.50;99.90
15413;DHT22;7805;49.554;7.632;2023-02-13T07:40:42;4.60;99.90
15413;DHT22;7805;49.554;7.632;2023-02-13T07:43:08;4.70;99.90
15413;DHT22;7805;49.554;7.632;2023-02-13T07:45:34;4.80;99.90
15413;DHT22;7805;49.554;7.632;2023-02-13T07:47:59;4.80;99.90
15413;DHT22;7805;49.554;7.632;2023-02-13T07:50:25;4.90;99.90
15413;DHT22;7805;49.554;7.632;2023-02-13T07:52:57;4.90;99.90
15413;DHT22;7805;49.554;7.632;2023-02-13T07:55:23;4.90;99.90
15413;DHT22;7805;49.554;7.632;2023-02-13T07:57:49;4.90;99.90
15413;DHT22;7805;49.554;7.632;2023-02-13T08:00:15;4.90;99.90
15413;DHT22;7805;49.554;7.632;2023-02-13T08:02:41;5.00;99.90
15413;DHT22;7805;49.554;7.632;2023-02-13T08:05:07;5.10;99.90
15413;DHT22;7805;49.554;7.632;2023-02-13T08:07:33;5.20;99.90
15413;DHT22;7805;49.554;7.632;2023-02-13T08:09:58;5.20;99.90
15413;DHT22;7805;49.554;7.632;2023-02-13T08:12:43;5.20;99.90
15413;DHT22;7805;49.554;7.632;2023-02-13T08:15:17;5.20;99.90
15413;DHT22;7805;49.554;7.632;2023-02-13T08:17:43;5.30;99.90
15413;DHT22;7805;49.554;7.632;2023-02-13T08:20:09;5.40;99.90
15413;DHT22;7805;49.554;7.632;2023-02-13T08:22:36;5.50;99.90
15413;DHT22;7805;49.554;7.632;2023-02-13T08:25:02;5.50;99.90
15413;DHT22;7805;49.554;7.632;2023-02-13T08:27:28;5.60;99.90
15413;DHT22;7805;49.554;7.632;2023-02-13T08:29:55;5.60;99.90
15413;DHT22;7805;49.554;7.632;2023-02-13T08:32:21;5.70;99.90
15413;DHT22;7805;49.554;7.632;2023-02-13T08:34:47;5.80;99.90
15413;DHT22;7805;49.554;7.632;2023-02-13T08:37:13;5.80;99.90
15413;DHT22;7805;49.554;7.632;2023-02-13T08:39:38;5.90;99.90
15413;DHT22;7805;49.554;7.632;2023-02-13T08:42:04;6.10;99.90
15413;DHT22;7805;49.554;7.632;2023-02-13T08:44:29;6.00;99.90
15413;DHT22;7805;49.554;7.632;2023-02-13T08:46:55;6.10;99.90
15413;DHT22;7805;49.554;7.632;2023-02-13T08:49:21;6.20;99.90
15413;DHT22;7805;49.554;7.632;2023-02-13T08:51:48;6.40;99.90
15413;DHT22;7805;49.554;7.632;2023-02-13T08:54:14;6.70;99.90
15413;DHT22;7805;49.554;7.632;2023-02-13T08:56:40;7.30;99.90
15413;DHT22;7805;49.554;7.632;2023-02-13T08:59:05;7.90;99.90
15413;DHT22;7805;49.554;7.632;2023-02-13T09:01:31;8.60;99.90
15413;DHT22;7805;49.554;7.632;2023-02-13T09:03:57;9.10;99.90
15413;DHT22;7805;49.554;7.632;2023-02-13T09:06:22;9.70;99.90
15413;DHT22;7805;49.554;7.632;2023-02-13T09:08:50;10.30;99.90
15413;DHT22;7805;49.554;7.632;2023-02-13T09:11:16;10.80;99.90
15413;DHT22;7805;49.554;7.632;2023-02-13T09:13:41;11.30;99.90
15413;DHT22;7805;49.554;7.632;2023-02-13T09:16:07;11.30;99.90
15413;DHT22;7805;49.554;7.632;2023-02-13T09:18:34;11.50;99.90
15413;DHT22;7805;49.554;7.632;2023-02-13T09:21:05;11.70;99.90
15413;DHT22;7805;49.554;7.632;2023-02-13T09:23:33;11.70;99.90
15413;DHT22;7805;49.554;7.632;2023-02-13T09:26:00;11.70;99.90
15413;DHT22;7805;49.554;7.632;2023-02-13T09:28:27;11.60;99.90
15413;DHT22;7805;49.554;7.632;2023-02-13T09:30:53;11.80;99.90
15413;DHT22;7805;49.554;7.632;2023-02-13T09:33:18;11.70;99.90
15413;DHT22;7805;49.554;7.632;2023-02-13T09:35:44;12.00;99.90
15413;DHT22;7805;49.554;7.632;2023-02-13T09:38:10;12.10;99.90
15413;DHT22;7805;49.554;7.632;2023-02-13T09:41:12;11.50;99.90
15413;DHT22;7805;49.554;7.632;2023-02-13T09:43:34;11.20;99.90
15413;DHT22;7805;49.554;7.632;2023-02-13T09:46:11;11.50;99.90
15413;DHT22;7805;49.554;7.632;2023-02-13T09:48:39;11.00;99.90
15413;DHT22;7805;49.554;7.632;2023-02-13T09:51:06;11.30;99.90
15413;DHT22;7805;49.554;7.632;2023-02-13T09:53:32;11.80;99.90
15413;DHT22;7805;49.554;7.632;2023-02-13T09:59:41;12.30;99.90
15413;DHT22;7805;49.554;7.632;2023-02-13T10:05:15;13.40;99.90
15413;DHT22;7805;49.554;7.632;2023-02-13T10:10:28;13.50;99.90
15413;DHT22;7805;49.554;7.632;2023-02-13T10:13:06;13.70;99.90
15413;DHT22;7805;49.554;7.632;2023-02-13T10:15:40;13.60;99.90
15413;DHT22;7805;49.554;7.632;2023-02-13T10:18:14;13.50;99.90
15413;DHT22;7805;49.554;7.632;2023-02-13T10:20:46;13.90;99.90
15413;DHT22;7805;49.554;7.632;2023-02-13T10:23:21;13.80;99.90
15413;DHT22;7805;49.554;7.632;2023-02-13T10:25:58;13.90;99.90
15413;DHT22;7805;49.554;7.632;2023-02-13T10:28:36;14.00;99.90
15413;DHT22;7805;49.554;7.632;2023-02-13T10:31:06;13.90;99.90
15413;DHT22;7805;49.554;7.632;2023-02-13T10:33:51;13.50;99.90
15413;DHT22;7805;49.554;7.632;2023-02-13T10:36:21;13.20;99.90
15413;DHT22;7805;49.554;7.632;2023-02-13T10:47:55;13.70;99.90
15413;DHT22;7805;49.554;7.632;2023-02-13T10:50:27;13.50;99.90
15413;DHT22;7805;49.554;7.632;2023-02-13T10:58:11;15.40;99.90
15413;DHT22;7805;49.554;7.632;2023-02-13T11:03:22;14.50;99.00
15413;DHT22;7805;49.554;7.632;2023-02-13T11:05:49;14.70;99.90
15413;DHT22;7805;49.554;7.632;2023-02-13T11:08:25;14.80;99.90
15413;DHT22;7805;49.554;7.632;2023-02-13T11:10:51;14.60;99.10
15413;DHT22;7805;49.554;7.632;2023-02-13T11:13:23;15.10;99.90
15413;DHT22;7805;49.554;7.632;2023-02-13T11:16:03;15.20;98.80
15413;DHT22;7805;49.554;7.632;2023-02-13T11:18:34;15.30;98.70
15413;DHT22;7805;49.554;7.632;2023-02-13T11:21:08;15.50;97.70
15413;DHT22;7805;49.554;7.632;2023-02-13T11:23:42;15.30;97.30
15413;DHT22;7805;49.554;7.632;2023-02-13T11:26:30;15.40;97.70
15413;DHT22;7805;49.554;7.632;2023-02-13T11:28:59;15.10;97.60
15413;DHT22;7805;49.554;7.632;2023-02-13T11:33:56;15.30;98.10
15413;DHT22;7805;49.554;7.632;2023-02-13T11:36:32;15.20;98.20
15413;DHT22;7805;49.554;7.632;2023-02-13T11:39:04;15.50;98.10
15413;DHT22;7805;49.554;7.632;2023-02-13T11:41:38;15.90;97.40
15413;DHT22;7805;49.554;7.632;2023-02-13T11:44:04;16.20;97.00
15413;DHT22;7805;49.554;7.632;2023-02-13T11:46:50;16.40;97.10
15413;DHT22;7805;49.554;7.632;2023-02-13T11:49:22;16.50;95.60
15413;DHT22;7805;49.554;7.632;2023-02-13T11:51:56;16.70;96.00
15413;DHT22;7805;49.554;7.632;2023-02-13T11:54:32;16.80;95.10
15413;DHT22;7805;49.554;7.632;2023-02-13T11:59:31;16.30;95.00
15413;DHT22;7805;49.554;7.632;2023-02-13T12:02:17;16.40;95.00
15413;DHT22;7805;49.554;7.632;2023-02-13T12:04:43;16.50;94.90
15413;DHT22;7805;49.554;7.632;2023-02-13T12:07:28;16.60;95.30
15413;DHT22;7805;49.554;7.632;2023-02-13T12:10:22;16.70;93.80
15413;DHT22;7805;49.554;7.632;2023-02-13T12:13:14;16.80;94.40
15413;DHT22;7805;49.554;7.632;2023-02-13T12:15:46;16.90;94.10
15413;DHT22;7805;49.554;7.632;2023-02-13T12:18:18;17.20;94.50
15413;DHT22;7805;49.554;7.632;2023-02-13T12:23:54;16.80;93.00
15413;DHT22;7805;49.554;7.632;2023-02-13T12:37:46;17.30;91.90
15413;DHT22;7805;49.554;7.632;2023-02-13T12:51:35;18.00;88.70
15413;DHT22;7805;49.554;7.632;2023-02-13T12:57:07;18.10;86.30
15413;DHT22;7805;49.554;7.632;2023-02-13T13:13:56;18.80;83.50
15413;DHT22;7805;49.554;7.632;2023-02-13T13:16:49;18.80;83.00
15413;DHT22;7805;49.554;7.632;2023-02-13T13:21:59;19.40;80.10
15413;DHT22;7805;49.554;7.632;2023-02-13T13:24:53;19.50;79.00
15413;DHT22;7805;49.554;7.632;2023-02-13T13:27:49;19.50;77.40
15413;DHT22;7805;49.554;7.632;2023-02-13T13:30:26;20.20;75.70
15413;DHT22;7805;49.554;7.632;2023-02-13T13:35:44;21.10;73.40
15413;DHT22;7805;49.554;7.632;2023-02-13T13:41:00;24.00;69.50
15413;DHT22;7805;49.554;7.632;2023-02-13T13:43:48;24.80;61.40
15413;DHT22;7805;49.554;7.632;2023-02-13T13:48:50;25.90;59.30
15413;DHT22;7805;49.554;7.632;2023-02-13T13:51:20;25.40;54.70
15413;DHT22;7805;49.554;7.632;2023-02-13T13:59:54;26.50;52.60
15413;DHT22;7805;49.554;7.632;2023-02-13T14:07:37;24.50;53.60
15413;DHT22;7805;49.554;7.632;2023-02-13T14:10:18;24.70;53.60
15413;DHT22;7805;49.554;7.632;2023-02-13T14:25:42;24.40;53.90
15413;DHT22;7805;49.554;7.632;2023-02-13T14:28:23;24.70;54.40
15413;DHT22;7805;49.554;7.632;2023-02-13T14:30:51;24.50;52.00
15413;DHT22;7805;49.554;7.632;2023-02-13T14:33:29;24.30;52.90
15413;DHT22;7805;49.554;7.632;2023-02-13T14:36:20;23.90;53.20
15413;DHT22;7805;49.554;7.632;2023-02-13T14:38:55;23.20;52.70
15413;DHT22;7805;49.554;7.632;2023-02-13T14:49:48;22.00;56.20
15413;DHT22;7805;49.554;7.632;2023-02-13T14:52:37;21.60;55.40
15413;DHT22;7805;49.554;7.632;2023-02-13T14:58:27;21.00;58.00
15413;DHT22;7805;49.554;7.632;2023-02-13T15:03:19;20.30;58.00
15413;DHT22;7805;49.554;7.632;2023-02-13T15:05:51;20.20;59.00
15413;DHT22;7805;49.554;7.632;2023-02-13T15:08:23;20.10;59.60
15413;DHT22;7805;49.554;7.632;2023-02-13T15:10:52;20.30;60.20
15413;DHT22;7805;49.554;7.632;2023-02-13T15:13:22;20.30;60.30
15413;DHT22;7805;49.554;7.632;2023-02-13T15:15:55;20.60;60.40
15413;DHT22;7805;49.554;7.632;2023-02-13T15:18:25;20.00;60.00
15413;DHT22;7805;49.554;7.632;2023-02-13T15:20:56;19.80;60.60
15413;DHT22;7805;49.554;7.632;2023-02-13T15:23:28;19.70;60.80
15413;DHT22;7805;49.554;7.632;2023-02-13T15:26:05;19.30;61.60
15413;DHT22;7805;49.554;7.632;2023-02-13T15:28:32;19.20;62.60
15413;DHT22;7805;49.554;7.632;2023-02-13T15:31:02;19.30;63.10
15413;DHT22;7805;49.554;7.632;2023-02-13T15:33:42;19.10;62.70
15413;DHT22;7805;49.554;7.632;2023-02-13T15:36:19;18.80;62.60
15413;DHT22;7805;49.554;7.632;2023-02-13T15:38:46;18.60;64.50
15413;DHT22;7805;49.554;7.632;2023-02-13T15:41:13;18.40;64.60
15413;DHT22;7805;49.554;7.632;2023-02-13T15:43:44;18.10;65.30
15413;DHT22;7805;49.554;7.632;2023-02-13T15:46:20;18.20;66.10
15413;DHT22;7805;49.554;7.632;2023-02-13T15:48:46;17.90;66.50
15413;DHT22;7805;49.554;7.632;2023-02-13T15:51:23;17.80;67.20
15413;DHT22;7805;49.554;7.632;2023-02-13T15:54:03;17.70;67.50
15413;DHT22;7805;49.554;7.632;2023-02-13T15:56:29;17.70;68.60
15413;DHT22;7805;49.554;7.632;2023-02-13T15:58:56;17.50;69.60
15413;DHT22;7805;49.554;7.632;2023-02-13T16:01:23;17.30;69.70
15413;DHT22;7805;49.554;7.632;2023-02-13T16:03:55;17.00;70.60
15413;DHT22;7805;49.554;7.632;2023-02-13T16:06:22;16.70;71.40
15413;DHT22;7805;49.554;7.632;2023-02-13T16:08:54;16.30;72.20
15413;DHT22;7805;49.554;7.632;2023-02-13T16:16:34;14.90;80.00
15413;DHT22;7805;49.554;7.632;2023-02-13T16:19:00;14.60;81.30
15413;DHT22;7805;49.554;7.632;2023-02-13T16:21:27;14.40;83.50
15413;DHT22;7805;49.554;7.632;2023-02-13T16:24:04;14.20;85.00
15413;DHT22;7805;49.554;7.632;2023-02-13T16:26:34;13.90;87.70
15413;DHT22;7805;49.554;7.632;2023-02-13T16:29:00;13.90;88.80
15413;DHT22;7805;49.554;7.632;2023-02-13T16:31:26;13.60;90.60
15413;DHT22;7805;49.554;7.632;2023-02-13T16:33:52;13.50;91.20
15413;DHT22;7805;49.554;7.632;2023-02-13T16:36:26;13.30;91.80
15413;DHT22;7805;49.554;7.632;2023-02-13T16:38:52;13.20;92.40
15413;DHT22;7805;49.554;7.632;2023-02-13T16:43:44;12.90;93.30
15413;DHT22;7805;49.554;7.632;2023-02-13T16:48:36;12.40;94.90
15413;DHT22;7805;49.554;7.632;2023-02-13T16:51:02;12.10;95.80
15413;DHT22;7805;49.554;7.632;2023-02-13T16:53:28;11.90;96.90
15413;DHT22;7805;49.554;7.632;2023-02-13T16:56:12;11.70;97.90
15413;DHT22;7805;49.554;7.632;2023-02-13T16:58:37;11.60;99.40
15413;DHT22;7805;49.554;7.632;2023-02-13T17:01:04;11.40;99.00
15413;DHT22;7805;49.554;7.632;2023-02-13T17:03:31;11.30;99.40
15413;DHT22;7805;49.554;7.632;2023-02-13T17:06:00;11.20;99.70
15413;DHT22;7805;49.554;7.632;2023-02-13T17:08:26;11.20;99.90
15413;DHT22;7805;49.554;7.632;2023-02-13T17:11:04;11.00;99.90
15413;DHT22;7805;49.554;7.632;2023-02-13T17:13:29;10.80;99.90
15413;DHT22;7805;49.554;7.632;2023-02-13T17:15:55;10.60;99.90
15413;DHT22;7805;49.554;7.632;2023-02-13T17:18:21;10.50;99.90
15413;DHT22;7805;49.554;7.632;2023-02-13T17:20:46;10.50;99.90
15413;DHT22;7805;49.554;7.632;2023-02-13T17:23:22;10.40;99.90
15413;DHT22;7805;49.554;7.632;2023-02-13T17:25:49;10.40;99.90
15413;DHT22;7805;49.554;7.632;2023-02-13T17:28:17;10.30;99.90
15413;DHT22;7805;49.554;7.632;2023-02-13T17:30:44;10.10;99.90
15413;DHT22;7805;49.554;7.632;2023-02-13T17:33:17;10.00;99.90
15413;DHT22;7805;49.554;7.632;2023-02-13T17:35:43;9.80;99.90
15413;DHT22;7805;49.554;7.632;2023-02-13T17:38:09;9.70;99.90
15413;DHT22;7805;49.554;7.632;2023-02-13T17:40:35;9.60;99.90
15413;DHT22;7805;49.554;7.632;2023-02-13T17:43:01;9.50;99.90
15413;DHT22;7805;49.554;7.632;2023-02-13T17:45:29;9.40;99.90
15413;DHT22;7805;49.554;7.632;2023-02-13T17:47:55;9.30;99.90
15413;DHT22;7805;49.554;7.632;2023-02-13T17:50:23;9.20;99.90
15413;DHT22;7805;49.554;7.632;2023-02-13T17:52:48;9.20;99.90
15413;DHT22;7805;49.554;7.632;2023-02-13T17:57:42;9.50;99.90
15413;DHT22;7805;49.554;7.632;2023-02-13T18:00:08;9.00;99.90
15413;DHT22;7805;49.554;7.632;2023-02-13T18:02:33;8.90;99.90
15413;DHT22;7805;49.554;7.632;2023-02-13T18:04:59;8.80;99.90
15413;DHT22;7805;49.554;7.632;2023-02-13T18:07:25;8.70;99.90
15413;DHT22;7805;49.554;7.632;2023-02-13T18:09:50;8.70;99.90
15413;DHT22;7805;49.554;7.632;2023-02-13T18:12:19;8.60;99.90
15413;DHT22;7805;49.554;7.632;2023-02-13T18:14:45;8.50;99.90
15413;DHT22;7805;49.554;7.632;2023-02-13T18:17:11;8.40;99.90
15413;DHT22;7805;49.554;7.632;2023-02-13T18:19:37;8.30;99.90
15413;DHT22;7805;49.554;7.632;2023-02-13T18:22:04;8.20;99.90
15413;DHT22;7805;49.554;7.632;2023-02-13T18:24:31;8.10;99.90
15413;DHT22;7805;49.554;7.632;2023-02-13T18:26:58;8.00;99.90
15413;DHT22;7805;49.554;7.632;2023-02-13T18:29:24;8.00;99.90
15413;DHT22;7805;49.554;7.632;2023-02-13T18:31:50;7.90;99.90
15413;DHT22;7805;49.554;7.632;2023-02-13T18:34:17;7.80;99.90
15413;DHT22;7805;49.554;7.632;2023-02-13T18:36:43;7.80;99.90
15413;DHT22;7805;49.554;7.632;2023-02-13T18:39:08;7.70;99.90
15413;DHT22;7805;49.554;7.632;2023-02-13T18:41:34;7.70;99.90
15413;DHT22;7805;49.554;7.632;2023-02-13T18:43:59;7.60;99.90
15413;DHT22;7805;49.554;7.632;2023-02-13T18:46:25;7.50;99.90
15413;DHT22;7805;49.554;7.632;2023-02-13T18:48:50;7.50;99.90
15413;DHT22;7805;49.554;7.632;2023-02-13T18:51:16;7.50;99.90
15413;DHT22;7805;49.554;7.632;2023-02-13T18:53:42;7.30;99.90
15413;DHT22;7805;49.554;7.632;2023-02-13T18:56:07;7.10;99.90
15413;DHT22;7805;49.554;7.632;2023-02-13T18:58:34;7.00;99.90
15413;DHT22;7805;49.554;7.632;2023-02-13T19:01:13;7.00;99.90
15413;DHT22;7805;49.554;7.632;2023-02-13T19:03:40;7.00;99.90